createdAt,value
2018-06-05T00:02:01.017Z,99.99
2018-06-05T00:12:00.369Z,99.99
2018-06-05T00:21:41.533Z,99.99
2018-06-05T00:31:41.538Z,99.99
2018-06-05T00:41:42.259Z,99.99
2018-06-05T00:51:41.725Z,99.99
2018-06-05T01:01:41.470Z,99.99
2018-06-05T01:11:42.128Z,99.99
2018-06-05T01:21:42.145Z,99.99
2018-06-05T01:31:46.182Z,99.99
2018-06-05T01:41:43.512Z,99.99
2018-06-05T01:51:41.764Z,99.99
2018-06-05T02:01:42.309Z,99.99
2018-06-05T02:11:42.748Z,99.99
2018-06-05T02:21:41.619Z,99.99
2018-06-05T02:31:42.731Z,99.99
2018-06-05T02:41:42.829Z,99.99
2018-06-05T02:51:41.463Z,99.99
2018-06-05T03:01:41.266Z,99.99
2018-06-05T03:11:42.537Z,99.99
2018-06-05T03:21:41.781Z,99.99
2018-06-05T03:31:41.887Z,99.99
2018-06-05T03:41:42.604Z,99.99
2018-06-05T03:51:58.791Z,99.99
2018-06-05T04:01:41.867Z,99.99
2018-06-05T04:11:43.541Z,99.99
2018-06-05T04:21:42.005Z,99.99
2018-06-05T04:31:41.665Z,99.99
2018-06-05T04:41:42.189Z,99.99
2018-06-05T04:51:41.487Z,99.99
2018-06-05T05:02:03.452Z,99.99
2018-06-05T05:11:41.607Z,99.99
2018-06-05T05:21:37.975Z,99.99
2018-06-05T05:31:37.901Z,99.99
2018-06-05T05:41:38.007Z,99.99
2018-06-05T05:51:37.939Z,99.99
2018-06-05T06:01:38.016Z,99.99
2018-06-05T06:11:37.955Z,99.99
2018-06-05T06:21:37.933Z,99.99
2018-06-05T06:31:37.961Z,99.99
2018-06-05T06:41:37.925Z,99.99
2018-06-05T06:51:38.013Z,99.99
2018-06-05T07:01:37.954Z,99.99
2018-06-05T07:11:38.064Z,99.99
2018-06-05T07:21:37.976Z,99.99
2018-06-05T07:31:38.063Z,99.99
2018-06-05T07:41:38.218Z,99.99
2018-06-05T07:51:38.058Z,99.99
2018-06-05T08:01:38.090Z,99.99
2018-06-05T08:11:38.063Z,99.99
2018-06-05T08:21:38.106Z,99.99
2018-06-05T08:31:38.084Z,99.99
2018-06-05T08:41:38.285Z,99.99
2018-06-05T08:51:38.123Z,99.99
2018-06-05T09:01:38.151Z,99.99
2018-06-05T09:11:38.161Z,99.99
2018-06-05T09:21:38.075Z,99.99
2018-06-05T09:31:38.159Z,99.99
2018-06-05T09:41:38.366Z,99.99
2018-06-05T09:51:38.204Z,99.99
2018-06-05T10:01:38.151Z,99.99
2018-06-05T10:11:38.190Z,99.99
2018-06-05T10:21:38.194Z,99.99
2018-06-05T10:31:38.229Z,99.99
2018-06-05T10:41:38.206Z,99.99
2018-06-05T10:51:38.174Z,97.91
2018-06-05T11:01:38.288Z,93.23
2018-06-05T11:11:38.204Z,93.18
2018-06-05T11:21:38.267Z,91.01
2018-06-05T11:31:38.225Z,92.65
2018-06-05T11:41:38.168Z,90.14
2018-06-05T11:51:38.290Z,91.05
2018-06-05T12:01:38.196Z,90.95
2018-06-05T12:11:38.229Z,88.83
2018-06-05T12:21:38.268Z,85.63
2018-06-05T12:31:38.187Z,85.73
2018-06-05T12:41:42.258Z,87.37
2018-06-05T12:51:38.254Z,88.29
2018-06-05T13:01:38.265Z,89.51
2018-06-05T13:11:38.229Z,87.19
2018-06-05T13:21:38.187Z,88.69
2018-06-05T13:31:38.243Z,88.73
2018-06-05T13:41:38.284Z,87.58
2018-06-05T13:51:38.347Z,81.38
2018-06-05T14:01:38.239Z,79.29
2018-06-05T14:11:38.271Z,77.3
2018-06-05T14:21:38.234Z,83.3
2018-06-05T14:31:38.293Z,83.51
2018-06-05T14:41:38.275Z,87.43
2018-06-05T14:51:38.260Z,89.23
2018-06-05T15:01:38.270Z,90.29
2018-06-05T15:11:38.231Z,90.58
2018-06-05T15:21:38.314Z,88.93
2018-06-05T15:31:38.254Z,89.51
2018-06-05T15:41:38.256Z,90.29
2018-06-05T15:51:38.286Z,88.65
2018-06-05T16:01:38.258Z,91.25
2018-06-05T16:11:38.301Z,92.16
2018-06-05T16:21:38.291Z,90.05
2018-06-05T16:31:38.227Z,91.01
2018-06-05T16:41:38.274Z,93.8
2018-06-05T16:51:38.276Z,92.94
2018-06-05T17:01:38.233Z,93.04
2018-06-05T17:11:38.331Z,91.49
2018-06-05T17:21:38.435Z,93.08
2018-06-05T17:31:38.299Z,94.24
2018-06-05T17:41:38.279Z,96.46
2018-06-05T17:51:38.336Z,95.5
2018-06-05T18:01:38.311Z,99.26
2018-06-05T18:11:38.247Z,99.99
2018-06-05T18:21:38.262Z,99.99
2018-06-05T18:31:38.237Z,99.99
2018-06-05T18:41:38.277Z,99.99
2018-06-05T18:51:38.396Z,99.99
2018-06-05T19:01:38.264Z,99.99
2018-06-05T19:11:38.285Z,99.99
2018-06-05T19:21:38.250Z,99.99
2018-06-05T19:31:38.336Z,99.99
2018-06-05T19:41:38.893Z,99.99
2018-06-05T19:51:38.283Z,99.99
2018-06-05T20:01:38.245Z,99.99
2018-06-05T20:11:38.318Z,99.99
2018-06-05T20:21:38.296Z,99.99
2018-06-05T20:31:38.384Z,99.99
2018-06-05T20:41:38.286Z,99.99
2018-06-05T20:51:38.247Z,99.99
2018-06-05T21:01:38.330Z,99.99
2018-06-05T21:11:38.306Z,99.99
2018-06-05T21:21:38.229Z,99.99
2018-06-05T21:31:38.338Z,99.99
2018-06-05T21:41:38.304Z,99.99
2018-06-05T21:51:38.334Z,99.99
2018-06-05T22:01:38.350Z,99.99
2018-06-05T22:11:38.313Z,99.99
2018-06-05T22:21:38.315Z,99.99
2018-06-05T22:31:38.259Z,99.99
2018-06-05T22:41:38.242Z,99.99
2018-06-05T22:51:38.315Z,99.99
2018-06-05T23:01:38.297Z,99.99
2018-06-05T23:11:38.316Z,99.99
2018-06-05T23:21:38.294Z,99.99
2018-06-05T23:31:38.364Z,99.99
2018-06-05T23:41:38.312Z,99.99
2018-06-05T23:51:38.407Z,99.99
